Oelwein, IA

04:58 AM CST die 26o November, anno 2014 (GMT -0600)
Maplewood Dr | Change Station
CLOSE
Current Station
Personal Weather Stations
Location: Oelwein, IA
Elevation: 1135 ft
Nearby Weather Stations

Elev 1135 ft 42.69 °N, 91.91 °W | Updated 4 seconds ago

Aequaliter Nubila
Aequaliter Nubila
22.1 °F
Feels Like 17 °F
N
3.6
Ventus Variabilis Ventus from Magis Aquilo quam Zephyrus
Gusts 8.5 mph

Hodie
High -- | Low -- °F
--% Chance of Precip.
Yesterday
High -- | Low -- °F
Precip. -- in
7:12 AM 4:37 PM
Waxing Crescent, 18% visible
Pressio 30.02 in
Visibilitas 10.0 milia passuum
Clouds Aequaliter Nubila 5000 ft
Frigus Venti 17 °F
Frigus in quo Ros apparet 19 °F
Umor 87%
Rainfall 0.00 in
Snow Depth Not available.
UV 0 out of 12
Pollen .10 out of 12
Air Quality Not available.
Flu Activity Not available.
METAR KOLZ 261035Z AUTO 14010KT 10SM OVC050 M05/M07 A3002 RMK AO2

More Conditions Fewer Conditions

Pressio 30.02 in
Visibilitas 10.0 milia passuum
Clouds Aequaliter Nubila 5000 ft
Frigus Venti 17 °F
Frigus in quo Ros apparet 19 °F
Umor 87%
Rainfall 0.00 in
Snow Depth Not available.
UV 0 out of 12
Pollen .10 out of 12
Air Quality Not available.
Flu Activity Not available.
METAR KOLZ 261035Z AUTO 14010KT 10SM OVC050 M05/M07 A3002 RMK AO2

More Conditions Fewer Conditions

10-Day Weather Forecast

Almanac

Astronomy

Nov. 26, 2014 Rise Set
Actual Time
Civil Twilight
Nautical Twilight
Astronomical Twilight
Moon
Length Of Visible Light
Length of Day
Tomorrow will be .
, % of the Moon is Illuminated

Today's Extremes

State Highs State Lows

Community

WunderPhotos

Upload Photos

1,773,708 photos uploaded!

WunderBlogs® & News

Nearby

Air Quality

  Air Quality AQ Index Pollutant
Not available.

Snow Depth

Station Depth Elevation

Earthquake Activity

City Distance Mag. Time & Date
Minimum magnitude displayed is 2.5.

Coastal Water Temperatures

Locus Calor

Nearby Weather Stations